createdAt,value
2018-06-18T00:01:42.271Z,5.00
2018-06-18T00:06:45.923Z,5.47
2018-06-18T00:11:49.984Z,5.20
2018-06-18T00:16:53.302Z,5.57
2018-06-18T00:22:00.441Z,4.93
2018-06-18T00:27:04.484Z,4.73
2018-06-18T00:32:08.412Z,5.30
2018-06-18T00:37:12.514Z,5.27
2018-06-18T00:42:18.603Z,5.87
2018-06-18T00:47:22.376Z,6.60
2018-06-18T00:52:26.209Z,6.70
2018-06-18T00:57:30.178Z,6.83
2018-06-18T01:02:33.847Z,7.20
2018-06-18T01:07:38.115Z,6.60
2018-06-18T01:12:41.776Z,6.93
2018-06-18T01:17:45.412Z,6.57
2018-06-18T01:22:54.980Z,6.50
2018-06-18T01:27:58.986Z,6.40
2018-06-18T01:33:02.621Z,6.53
2018-06-18T01:38:06.303Z,6.83
2018-06-18T01:43:09.957Z,5.80
2018-06-18T01:48:15.071Z,6.30
2018-06-18T01:53:20.736Z,6.73
2018-06-18T01:58:24.905Z,5.80
2018-06-18T02:03:28.763Z,6.50
2018-06-18T02:08:33.057Z,6.37
2018-06-18T02:13:36.949Z,6.70
2018-06-18T02:18:40.917Z,6.20
2018-06-18T02:23:44.891Z,6.73
2018-06-18T02:28:54.219Z,6.90
2018-06-18T02:34:03.228Z,6.90
2018-06-18T02:39:07.918Z,6.33
2018-06-18T02:44:11.663Z,6.80
2018-06-18T02:49:16.179Z,6.80
2018-06-18T02:54:20.220Z,7.23
2018-06-18T02:59:23.931Z,7.27
2018-06-18T03:04:28.284Z,7.17
2018-06-18T03:09:32.325Z,7.10
2018-06-18T03:14:36.940Z,7.27
2018-06-18T03:19:45.988Z,6.90
2018-06-18T03:24:54.868Z,6.10
2018-06-18T03:29:59.063Z,6.30
2018-06-18T03:35:02.731Z,6.63
2018-06-18T03:40:06.823Z,6.00
2018-06-18T03:45:16.160Z,6.53
2018-06-18T03:50:19.843Z,6.47
2018-06-18T03:55:30.667Z,6.40
2018-06-18T04:00:42.208Z,6.80
2018-06-18T04:05:51.898Z,6.40
2018-06-18T04:11:02.674Z,7.07
2018-06-18T04:16:06.366Z,6.53
2018-06-18T04:21:10.029Z,6.10
2018-06-18T04:26:14.037Z,6.67
2018-06-18T04:31:18.361Z,6.43
2018-06-18T04:36:22.301Z,6.77
2018-06-18T04:41:25.952Z,6.10
2018-06-18T04:46:34.946Z,6.73
2018-06-18T04:51:38.619Z,6.20
2018-06-18T04:56:42.361Z,6.50
2018-06-18T05:01:46.024Z,6.40
2018-06-18T05:06:50.684Z,5.03
2018-06-18T05:11:54.350Z,6.30
2018-06-18T05:16:58.387Z,5.50
2018-06-18T05:22:02.644Z,5.67
2018-06-18T05:27:08.739Z,6.27
2018-06-18T05:32:12.440Z,4.90
2018-06-18T05:37:19.708Z,4.90
2018-06-18T05:42:23.745Z,5.00
2018-06-18T05:47:27.388Z,5.43
2018-06-18T05:52:31.922Z,5.50
2018-06-18T05:57:36.374Z,5.90
2018-06-18T06:02:40.560Z,4.90
2018-06-18T06:07:45.115Z,5.37
2018-06-18T06:12:49.137Z,5.00
2018-06-18T06:17:53.287Z,5.27
2018-06-18T06:22:57.220Z,4.70
2018-06-18T06:28:00.899Z,4.53
2018-06-18T06:33:04.810Z,5.00
2018-06-18T06:38:08.635Z,4.60
2018-06-18T06:43:13.075Z,5.03
2018-06-18T06:48:16.850Z,4.53
2018-06-18T06:53:20.516Z,4.17
2018-06-18T06:58:24.354Z,4.37
2018-06-18T07:03:28.119Z,4.00
2018-06-18T07:08:31.783Z,3.80
2018-06-18T07:13:36.125Z,3.27
2018-06-18T07:18:40.472Z,4.00
2018-06-18T07:23:45.926Z,4.87
2018-06-18T07:28:50.036Z,3.07
2018-06-18T07:33:54.453Z,3.03
2018-06-18T07:38:58.645Z,3.40
2018-06-18T07:44:02.578Z,3.27
2018-06-18T07:49:06.663Z,3.40
2018-06-18T07:54:10.617Z,3.67
2018-06-18T07:59:14.291Z,3.50
2018-06-18T08:04:18.338Z,3.37
2018-06-18T08:09:22.485Z,3.90
2018-06-18T08:14:26.591Z,2.90
2018-06-18T08:19:30.977Z,2.80
2018-06-18T08:24:34.682Z,2.90
2018-06-18T08:29:39.088Z,3.10
2018-06-18T08:34:42.786Z,3.20
2018-06-18T08:39:46.932Z,2.80
2018-06-18T08:44:53.025Z,2.50
2018-06-18T08:50:02.333Z,3.00
2018-06-18T08:55:12.500Z,3.10
2018-06-18T09:00:21.417Z,3.20
2018-06-18T09:05:30.928Z,3.00
2018-06-18T09:10:36.445Z,3.20
2018-06-18T09:15:40.137Z,2.70
2018-06-18T09:20:43.816Z,3.13
2018-06-18T09:25:52.908Z,2.70
2018-06-18T09:30:57.489Z,2.80
2018-06-18T09:36:01.992Z,3.40
2018-06-18T09:41:06.284Z,3.50
2018-06-18T09:46:09.985Z,3.20
2018-06-18T09:51:18.934Z,2.30
2018-06-18T09:56:28.221Z,2.60
2018-06-18T10:01:33.164Z,2.20
2018-06-18T10:06:38.159Z,2.40
2018-06-18T10:11:41.978Z,2.53
2018-06-18T10:16:45.610Z,2.30
2018-06-18T10:21:49.897Z,2.70
2018-06-18T10:26:53.894Z,2.30
2018-06-18T10:31:59.481Z,2.97
2018-06-18T10:37:08.466Z,3.00
2018-06-18T10:42:17.647Z,2.30
2018-06-18T10:47:21.710Z,3.00
2018-06-18T10:52:25.859Z,2.77
2018-06-18T10:57:29.493Z,2.77
2018-06-18T11:02:33.240Z,2.47
2018-06-18T11:07:36.908Z,3.10
2018-06-18T11:12:40.676Z,2.90
2018-06-18T11:17:50.629Z,2.60
2018-06-18T11:23:00.454Z,2.97
2018-06-18T11:28:04.187Z,2.57
2018-06-18T11:33:07.912Z,3.37
2018-06-18T11:38:11.623Z,2.87
2018-06-18T11:43:15.682Z,2.83
2018-06-18T11:48:20.902Z,2.50
2018-06-18T11:53:25.139Z,2.70
2018-06-18T11:58:34.458Z,2.60
2018-06-18T12:03:43.565Z,2.70
2018-06-18T12:08:52.771Z,2.73
2018-06-18T12:13:57.199Z,2.63
2018-06-18T12:19:00.945Z,2.70
2018-06-18T12:24:05.975Z,2.87
2018-06-18T12:29:09.836Z,3.10
2018-06-18T12:34:13.507Z,2.70
2018-06-18T12:39:17.220Z,2.83
2018-06-18T12:44:20.531Z,2.80
2018-06-18T12:49:29.485Z,3.20
2018-06-18T12:54:38.994Z,2.60
2018-06-18T12:59:42.724Z,2.93
2018-06-18T13:04:54.426Z,3.30
2018-06-18T13:09:58.713Z,2.60
2018-06-18T13:15:02.866Z,2.93
2018-06-18T13:20:06.620Z,2.40
2018-06-18T13:25:10.324Z,2.70
2018-06-18T13:30:14.015Z,2.80
2018-06-18T13:35:18.297Z,2.63
2018-06-18T13:40:27.397Z,3.20
2018-06-18T13:45:43.099Z,2.97
2018-06-18T13:50:47.048Z,3.20
2018-06-18T13:55:50.921Z,2.70
2018-06-18T14:00:57.394Z,2.70
2018-06-18T14:06:01.196Z,2.43
2018-06-18T14:11:06.240Z,2.50
2018-06-18T14:16:12.162Z,2.70
2018-06-18T14:21:16.441Z,2.90
2018-06-18T14:26:20.132Z,2.43
2018-06-18T14:31:29.197Z,2.63
2018-06-18T14:36:38.458Z,2.80
2018-06-18T14:41:42.327Z,2.43
2018-06-18T14:46:46.331Z,2.90
2018-06-18T14:51:50.072Z,2.30
2018-06-18T14:56:54.972Z,2.67
2018-06-18T15:01:59.011Z,2.70
2018-06-18T15:07:02.684Z,2.70
2018-06-18T15:12:06.526Z,3.10
2018-06-18T15:17:10.628Z,2.80
2018-06-18T15:22:14.392Z,2.97
2018-06-18T15:27:18.428Z,3.43
2018-06-18T15:32:22.058Z,3.20
2018-06-18T15:37:25.712Z,3.13
2018-06-18T15:42:29.396Z,3.50
2018-06-18T15:47:33.202Z,3.13
2018-06-18T15:52:37.252Z,3.57
2018-06-18T15:57:40.986Z,2.70
2018-06-18T16:02:44.759Z,3.43
2018-06-18T16:07:48.820Z,3.00
2018-06-18T16:12:53.807Z,2.90
2018-06-18T16:17:59.124Z,3.00
2018-06-18T16:23:02.767Z,2.57
2018-06-18T16:28:07.332Z,2.60
2018-06-18T16:33:11.392Z,2.80
2018-06-18T16:38:15.593Z,2.70
2018-06-18T16:43:20.306Z,2.60
2018-06-18T16:48:24.384Z,2.63
2018-06-18T16:53:28.783Z,2.50
2018-06-18T16:58:32.468Z,2.73
2018-06-18T17:03:36.605Z,2.80
2018-06-18T17:08:40.479Z,2.67
2018-06-18T17:13:44.136Z,2.57
2018-06-18T17:18:47.859Z,2.60
2018-06-18T17:23:53.561Z,2.77
2018-06-18T17:28:57.198Z,2.70
2018-06-18T17:34:01.463Z,2.60
2018-06-18T17:39:08.528Z,2.83
2018-06-18T17:44:12.201Z,2.57
2018-06-18T17:49:15.605Z,2.60
2018-06-18T17:54:19.374Z,2.87
2018-06-18T17:59:23.028Z,2.80
2018-06-18T18:04:26.708Z,2.63
2018-06-18T18:09:30.359Z,3.00
2018-06-18T18:14:34.017Z,3.00
2018-06-18T18:19:37.704Z,2.50
2018-06-18T18:24:42.416Z,2.77
2018-06-18T18:29:46.102Z,2.83
2018-06-18T18:34:49.817Z,2.93
2018-06-18T18:39:53.520Z,3.00
2018-06-18T18:44:57.338Z,2.97
2018-06-18T18:50:01.237Z,3.27
2018-06-18T18:55:46.420Z,3.00
2018-06-18T19:00:50.838Z,3.17
2018-06-18T19:05:55.892Z,3.20
2018-06-18T19:11:01.478Z,2.80
2018-06-18T19:16:05.438Z,2.90
2018-06-18T19:21:10.551Z,3.47
2018-06-18T19:26:14.233Z,3.37
2018-06-18T19:31:22.753Z,3.03
2018-06-18T19:36:26.429Z,3.00
2018-06-18T19:41:30.073Z,3.50
2018-06-18T19:46:39.297Z,3.30
2018-06-18T19:51:43.001Z,3.57
2018-06-18T19:56:46.661Z,3.50
2018-06-18T20:01:50.366Z,3.70
2018-06-18T20:06:55.135Z,3.90
2018-06-18T20:11:59.280Z,4.20
2018-06-18T20:17:03.029Z,4.20
2018-06-18T20:22:07.038Z,6.10
2018-06-18T20:27:10.879Z,3.90
2018-06-18T20:32:14.612Z,4.07
2018-06-18T20:37:18.332Z,4.13
2018-06-18T20:42:22.712Z,4.10
2018-06-18T20:47:26.352Z,4.17
2018-06-18T20:52:30.099Z,3.67
2018-06-18T20:57:34.832Z,4.20
2018-06-18T21:02:38.559Z,4.00
2018-06-18T21:07:42.207Z,4.00
2018-06-18T21:12:47.948Z,3.90
2018-06-18T21:17:53.377Z,4.07
2018-06-18T21:22:57.121Z,3.50
2018-06-18T21:28:01.266Z,3.80
2018-06-18T21:33:05.280Z,3.67
2018-06-18T21:38:10.363Z,3.70
2018-06-18T21:43:17.133Z,3.53
2018-06-18T21:48:20.858Z,3.27
2018-06-18T21:53:27.351Z,3.67
2018-06-18T21:58:31.464Z,3.67
2018-06-18T22:03:35.517Z,3.47
2018-06-18T22:08:39.322Z,4.07
2018-06-18T22:13:43.501Z,7.33
2018-06-18T22:18:47.212Z,6.10
2018-06-18T22:23:51.233Z,4.87
2018-06-18T22:28:54.905Z,4.30
2018-06-18T22:33:58.681Z,3.73
2018-06-18T22:39:02.361Z,4.10
2018-06-18T22:44:06.479Z,4.23
2018-06-18T22:49:11.139Z,3.80
2018-06-18T22:54:14.825Z,4.30
2018-06-18T22:59:18.455Z,4.43
2018-06-18T23:04:22.570Z,4.73
2018-06-18T23:09:26.917Z,4.27
2018-06-18T23:14:30.575Z,3.87
2018-06-18T23:19:34.988Z,3.60
2018-06-18T23:24:38.840Z,4.37
2018-06-18T23:29:43.712Z,5.13
2018-06-18T23:34:47.362Z,3.77
2018-06-18T23:39:52.357Z,3.83
2018-06-18T23:44:56.600Z,4.13
2018-06-18T23:50:00.482Z,4.00
2018-06-18T23:55:04.185Z,3.83
